Dubai, UAE

Jebel Ali industrial area no2 Check More Stations

Elev 16 m 25.27 °N, 55.33 °E | Updated 14 sec ago

Clear
Clear
37.8 °C
Feels Like 37 °C
N
21.6
Wind Variable Wind from WSW
Gusts 24.1 km/h

Today is forecast to be Cooler than yesterday.

Today
High 42 | Low 29 °C
Yesterday
High 43.8 | Low 24.8 °C
Precip. 0 mm
Pressure 1013.09 hPa
Visibility 6.0 kilometers
Clouds
Heat Index 37 °C
Dew Point 14 °C
Humidity 20%
Rainfall 0 mm
Snow Depth Not available.
5:37 AM 6:53 PM
Last Quarter, 36% visible
METAR OMDB 091300Z 01014KT 6000 NSC 37/16 Q1003 NOSIG
Pressure 1013.09 hPa
Visibility 6.0 kilometers
Clouds
Heat Index 37 °C
Dew Point 14 °C
Humidity 20%
Rainfall 0 mm
Snow Depth Not available.
5:37 AM 6:53 PM
Last Quarter, 36% visible
METAR OMDB 091300Z 01014KT 6000 NSC 37/16 Q1003 NOSIG
No radar image for this location.
×

Get Severe Weather Alerts

Thanks for signing up!

Be on the lookout for a verification email in your inbox.

You'll start receiving the daily forecast at 6 AM.

×